Terminal Aerodrome Forecast
Issued by NWS Charleston, WV

Current Version | Previous Version | Text Only | Print | Product List | Glossary Off
Versions: 1 2 3 4 5 6 7 8 9 10 11 12 13 14 15 16 17 18 19 20 21 22 23 24 25 26

000
FTUS41 KRLX 301700
TAFCRW
TAF
KCRW 301733Z 3018/3118 31011G20KT P6SM BKN035
      TEMPO 3018/3020 5SM -SN BKN030
     FM310300 32005KT P6SM SCT025
     FM311400 VRB03KT P6SM SCT200=

USA.gov is the U.S. government's official web portal to all federal, state and local government web resources and services.